sensor_id;sensor_type;location;lat;lon;timestamp;temperature;humidity
9847;DHT22;68671;50.084;8.794;2024-01-07T00:02:00;5.00;99.90
9847;DHT22;68671;50.084;8.794;2024-01-07T00:04:27;5.00;99.90
9847;DHT22;68671;50.084;8.794;2024-01-07T00:06:54;5.00;99.90
9847;DHT22;68671;50.084;8.794;2024-01-07T00:09:22;4.90;99.90
9847;DHT22;68671;50.084;8.794;2024-01-07T00:11:49;5.00;99.90
9847;DHT22;68671;50.084;8.794;2024-01-07T00:14:16;4.90;99.90
9847;DHT22;68671;50.084;8.794;2024-01-07T00:16:43;4.90;99.90
9847;DHT22;68671;50.084;8.794;2024-01-07T00:19:10;5.00;99.90
9847;DHT22;68671;50.084;8.794;2024-01-07T00:21:36;5.00;99.90
9847;DHT22;68671;50.084;8.794;2024-01-07T00:24:03;5.00;99.90
9847;DHT22;68671;50.084;8.794;2024-01-07T00:26:32;5.10;99.90
9847;DHT22;68671;50.084;8.794;2024-01-07T00:28:59;5.10;99.90
9847;DHT22;68671;50.084;8.794;2024-01-07T00:31:26;5.10;99.90
9847;DHT22;68671;50.084;8.794;2024-01-07T00:33:52;5.10;99.90
9847;DHT22;68671;50.084;8.794;2024-01-07T00:36:19;5.00;99.90
9847;DHT22;68671;50.084;8.794;2024-01-07T00:38:46;4.90;99.90
9847;DHT22;68671;50.084;8.794;2024-01-07T00:41:13;4.80;99.90
9847;DHT22;68671;50.084;8.794;2024-01-07T00:43:41;4.80;99.90
9847;DHT22;68671;50.084;8.794;2024-01-07T00:46:08;4.80;99.90
9847;DHT22;68671;50.084;8.794;2024-01-07T00:48:35;4.90;99.90
9847;DHT22;68671;50.084;8.794;2024-01-07T00:51:03;4.80;99.90
9847;DHT22;68671;50.084;8.794;2024-01-07T00:53:30;4.80;99.90
9847;DHT22;68671;50.084;8.794;2024-01-07T00:55:57;4.80;99.90
9847;DHT22;68671;50.084;8.794;2024-01-07T00:58:24;4.80;99.90
9847;DHT22;68671;50.084;8.794;2024-01-07T01:00:52;4.80;99.90
9847;DHT22;68671;50.084;8.794;2024-01-07T01:03:19;4.80;99.90
9847;DHT22;68671;50.084;8.794;2024-01-07T01:05:46;4.90;99.90
9847;DHT22;68671;50.084;8.794;2024-01-07T01:08:13;4.80;99.90
9847;DHT22;68671;50.084;8.794;2024-01-07T01:10:40;4.80;99.90
9847;DHT22;68671;50.084;8.794;2024-01-07T01:13:07;4.80;99.90
9847;DHT22;68671;50.084;8.794;2024-01-07T01:15:34;4.80;99.90
9847;DHT22;68671;50.084;8.794;2024-01-07T01:18:02;4.80;99.90
9847;DHT22;68671;50.084;8.794;2024-01-07T01:20:29;4.80;99.90
9847;DHT22;68671;50.084;8.794;2024-01-07T01:22:56;4.80;99.90
9847;DHT22;68671;50.084;8.794;2024-01-07T01:25:23;4.80;99.90
9847;DHT22;68671;50.084;8.794;2024-01-07T01:27:51;4.80;99.90
9847;DHT22;68671;50.084;8.794;2024-01-07T01:30:18;4.90;99.90
9847;DHT22;68671;50.084;8.794;2024-01-07T01:32:45;4.90;99.90
9847;DHT22;68671;50.084;8.794;2024-01-07T01:35:14;4.90;99.90
9847;DHT22;68671;50.084;8.794;2024-01-07T01:37:40;4.90;99.90
9847;DHT22;68671;50.084;8.794;2024-01-07T01:40:08;4.80;99.90
9847;DHT22;68671;50.084;8.794;2024-01-07T01:42:35;4.90;99.90
9847;DHT22;68671;50.084;8.794;2024-01-07T01:45:03;4.80;99.90
9847;DHT22;68671;50.084;8.794;2024-01-07T01:47:30;4.80;99.90
9847;DHT22;68671;50.084;8.794;2024-01-07T01:49:58;4.70;99.90
9847;DHT22;68671;50.084;8.794;2024-01-07T01:52:27;4.70;99.90
9847;DHT22;68671;50.084;8.794;2024-01-07T01:54:54;4.60;99.90
9847;DHT22;68671;50.084;8.794;2024-01-07T01:57:22;4.50;99.90
9847;DHT22;68671;50.084;8.794;2024-01-07T01:59:51;4.60;99.90
9847;DHT22;68671;50.084;8.794;2024-01-07T02:02:18;4.60;99.90
9847;DHT22;68671;50.084;8.794;2024-01-07T02:04:46;4.60;99.90
9847;DHT22;68671;50.084;8.794;2024-01-07T02:07:14;4.60;99.90
9847;DHT22;68671;50.084;8.794;2024-01-07T02:09:43;4.60;99.90
9847;DHT22;68671;50.084;8.794;2024-01-07T02:12:10;4.60;99.90
9847;DHT22;68671;50.084;8.794;2024-01-07T02:14:37;4.60;99.90
9847;DHT22;68671;50.084;8.794;2024-01-07T02:17:05;4.60;99.90
9847;DHT22;68671;50.084;8.794;2024-01-07T02:19:32;4.60;99.90
9847;DHT22;68671;50.084;8.794;2024-01-07T02:21:58;4.50;99.90
9847;DHT22;68671;50.084;8.794;2024-01-07T02:24:27;4.50;99.90
9847;DHT22;68671;50.084;8.794;2024-01-07T02:26:54;4.50;99.90
9847;DHT22;68671;50.084;8.794;2024-01-07T02:29:20;4.40;99.90
9847;DHT22;68671;50.084;8.794;2024-01-07T02:31:47;4.50;99.90
9847;DHT22;68671;50.084;8.794;2024-01-07T02:34:15;4.40;99.90
9847;DHT22;68671;50.084;8.794;2024-01-07T02:36:42;4.50;99.90
9847;DHT22;68671;50.084;8.794;2024-01-07T02:39:08;4.50;99.90
9847;DHT22;68671;50.084;8.794;2024-01-07T02:41:37;4.50;99.90
9847;DHT22;68671;50.084;8.794;2024-01-07T02:44:04;4.60;99.90
9847;DHT22;68671;50.084;8.794;2024-01-07T02:46:31;4.60;99.90
9847;DHT22;68671;50.084;8.794;2024-01-07T02:48:58;4.70;99.90
9847;DHT22;68671;50.084;8.794;2024-01-07T02:51:24;4.70;99.90
9847;DHT22;68671;50.084;8.794;2024-01-07T02:53:51;4.70;99.90
9847;DHT22;68671;50.084;8.794;2024-01-07T02:56:18;4.70;99.90
9847;DHT22;68671;50.084;8.794;2024-01-07T02:58:46;4.60;99.90
9847;DHT22;68671;50.084;8.794;2024-01-07T03:01:13;4.50;99.90
9847;DHT22;68671;50.084;8.794;2024-01-07T03:03:40;4.40;99.90
9847;DHT22;68671;50.084;8.794;2024-01-07T03:06:07;4.40;99.90
9847;DHT22;68671;50.084;8.794;2024-01-07T03:08:34;4.30;99.90
9847;DHT22;68671;50.084;8.794;2024-01-07T03:11:04;4.30;99.90
9847;DHT22;68671;50.084;8.794;2024-01-07T03:13:32;4.40;99.90
9847;DHT22;68671;50.084;8.794;2024-01-07T03:16:00;4.30;99.90
9847;DHT22;68671;50.084;8.794;2024-01-07T03:18:28;4.20;99.90
9847;DHT22;68671;50.084;8.794;2024-01-07T03:20:55;4.20;99.90
9847;DHT22;68671;50.084;8.794;2024-01-07T03:23:22;4.20;99.90
9847;DHT22;68671;50.084;8.794;2024-01-07T03:25:49;4.20;99.90
9847;DHT22;68671;50.084;8.794;2024-01-07T03:28:16;4.20;99.90
9847;DHT22;68671;50.084;8.794;2024-01-07T03:30:43;4.20;99.90
9847;DHT22;68671;50.084;8.794;2024-01-07T03:33:11;4.20;99.90
9847;DHT22;68671;50.084;8.794;2024-01-07T03:35:38;4.20;99.90
9847;DHT22;68671;50.084;8.794;2024-01-07T03:38:05;4.00;99.90
9847;DHT22;68671;50.084;8.794;2024-01-07T03:40:32;4.20;99.90
9847;DHT22;68671;50.084;8.794;2024-01-07T03:42:58;4.20;99.90
9847;DHT22;68671;50.084;8.794;2024-01-07T03:45:25;4.20;99.90
9847;DHT22;68671;50.084;8.794;2024-01-07T03:47:52;4.10;99.90
9847;DHT22;68671;50.084;8.794;2024-01-07T03:50:21;4.10;99.90
9847;DHT22;68671;50.084;8.794;2024-01-07T03:52:47;4.10;99.90
9847;DHT22;68671;50.084;8.794;2024-01-07T03:55:14;4.10;99.90
9847;DHT22;68671;50.084;8.794;2024-01-07T03:57:43;4.10;99.90
9847;DHT22;68671;50.084;8.794;2024-01-07T04:00:10;4.10;99.90
9847;DHT22;68671;50.084;8.794;2024-01-07T04:02:37;4.10;99.90
9847;DHT22;68671;50.084;8.794;2024-01-07T04:05:05;4.10;99.90
9847;DHT22;68671;50.084;8.794;2024-01-07T04:07:34;4.10;99.90
9847;DHT22;68671;50.084;8.794;2024-01-07T04:10:01;4.10;99.90
9847;DHT22;68671;50.084;8.794;2024-01-07T04:12:28;4.10;99.90
9847;DHT22;68671;50.084;8.794;2024-01-07T04:14:55;4.10;99.90
9847;DHT22;68671;50.084;8.794;2024-01-07T04:17:22;4.10;99.90
9847;DHT22;68671;50.084;8.794;2024-01-07T04:19:49;4.00;99.90
9847;DHT22;68671;50.084;8.794;2024-01-07T04:22:16;4.10;99.90
9847;DHT22;68671;50.084;8.794;2024-01-07T04:24:45;4.00;99.90
9847;DHT22;68671;50.084;8.794;2024-01-07T04:27:12;3.90;99.90
9847;DHT22;68671;50.084;8.794;2024-01-07T04:29:38;3.90;99.90
9847;DHT22;68671;50.084;8.794;2024-01-07T04:32:05;3.80;99.90
9847;DHT22;68671;50.084;8.794;2024-01-07T04:34:32;3.80;99.90
9847;DHT22;68671;50.084;8.794;2024-01-07T04:36:59;3.80;99.90
9847;DHT22;68671;50.084;8.794;2024-01-07T04:39:26;3.80;99.90
9847;DHT22;68671;50.084;8.794;2024-01-07T04:41:54;3.80;99.90
9847;DHT22;68671;50.084;8.794;2024-01-07T04:44:21;3.70;99.90
9847;DHT22;68671;50.084;8.794;2024-01-07T04:46:48;3.60;99.90
9847;DHT22;68671;50.084;8.794;2024-01-07T04:49:15;3.60;99.90
9847;DHT22;68671;50.084;8.794;2024-01-07T04:51:58;3.50;99.90
9847;DHT22;68671;50.084;8.794;2024-01-07T04:54:25;3.50;99.90
9847;DHT22;68671;50.084;8.794;2024-01-07T04:56:52;3.50;99.90
9847;DHT22;68671;50.084;8.794;2024-01-07T04:59:19;3.50;99.90
9847;DHT22;68671;50.084;8.794;2024-01-07T05:01:46;3.50;99.90
9847;DHT22;68671;50.084;8.794;2024-01-07T05:04:13;3.50;99.90
9847;DHT22;68671;50.084;8.794;2024-01-07T05:06:40;3.40;99.90
9847;DHT22;68671;50.084;8.794;2024-01-07T05:09:08;3.40;99.90
9847;DHT22;68671;50.084;8.794;2024-01-07T05:11:39;3.30;99.90
9847;DHT22;68671;50.084;8.794;2024-01-07T05:14:06;3.30;99.90
9847;DHT22;68671;50.084;8.794;2024-01-07T05:16:33;3.40;99.90
9847;DHT22;68671;50.084;8.794;2024-01-07T05:19:09;3.30;99.90
9847;DHT22;68671;50.084;8.794;2024-01-07T05:21:36;3.40;99.90
9847;DHT22;68671;50.084;8.794;2024-01-07T05:24:04;3.40;99.90
9847;DHT22;68671;50.084;8.794;2024-01-07T05:26:38;3.40;99.90
9847;DHT22;68671;50.084;8.794;2024-01-07T05:29:07;3.50;99.90
9847;DHT22;68671;50.084;8.794;2024-01-07T05:31:34;3.50;99.90
9847;DHT22;68671;50.084;8.794;2024-01-07T05:34:01;3.50;99.90
9847;DHT22;68671;50.084;8.794;2024-01-07T05:36:28;3.50;99.90
9847;DHT22;68671;50.084;8.794;2024-01-07T05:38:55;3.50;99.90
9847;DHT22;68671;50.084;8.794;2024-01-07T05:41:22;3.50;99.90
9847;DHT22;68671;50.084;8.794;2024-01-07T05:43:50;3.50;99.90
9847;DHT22;68671;50.084;8.794;2024-01-07T05:46:17;3.40;99.90
9847;DHT22;68671;50.084;8.794;2024-01-07T05:48:45;3.50;99.90
9847;DHT22;68671;50.084;8.794;2024-01-07T05:51:13;3.50;99.90
9847;DHT22;68671;50.084;8.794;2024-01-07T05:53:43;3.50;99.90
9847;DHT22;68671;50.084;8.794;2024-01-07T05:56:10;3.50;99.90
9847;DHT22;68671;50.084;8.794;2024-01-07T05:58:37;3.50;99.90
9847;DHT22;68671;50.084;8.794;2024-01-07T06:01:07;3.50;99.90
9847;DHT22;68671;50.084;8.794;2024-01-07T06:03:35;3.40;99.90
9847;DHT22;68671;50.084;8.794;2024-01-07T06:06:02;3.50;99.90
9847;DHT22;68671;50.084;8.794;2024-01-07T06:08:29;3.50;99.90
9847;DHT22;68671;50.084;8.794;2024-01-07T06:10:56;3.50;99.90
9847;DHT22;68671;50.084;8.794;2024-01-07T06:13:23;3.60;99.90
9847;DHT22;68671;50.084;8.794;2024-01-07T06:15:50;3.60;99.90
9847;DHT22;68671;50.084;8.794;2024-01-07T06:18:18;3.60;99.90
9847;DHT22;68671;50.084;8.794;2024-01-07T06:20:45;3.50;99.90
9847;DHT22;68671;50.084;8.794;2024-01-07T06:23:12;3.50;99.90
9847;DHT22;68671;50.084;8.794;2024-01-07T06:25:39;3.50;99.90
9847;DHT22;68671;50.084;8.794;2024-01-07T06:28:06;3.50;99.90
9847;DHT22;68671;50.084;8.794;2024-01-07T06:30:33;3.40;99.90
9847;DHT22;68671;50.084;8.794;2024-01-07T06:33:00;3.50;99.90
9847;DHT22;68671;50.084;8.794;2024-01-07T06:35:28;3.50;99.90
9847;DHT22;68671;50.084;8.794;2024-01-07T06:37:56;3.50;99.90
9847;DHT22;68671;50.084;8.794;2024-01-07T06:40:23;3.50;99.90
9847;DHT22;68671;50.084;8.794;2024-01-07T06:42:50;3.40;99.90
9847;DHT22;68671;50.084;8.794;2024-01-07T06:45:17;3.30;99.90
9847;DHT22;68671;50.084;8.794;2024-01-07T06:47:44;3.30;99.90
9847;DHT22;68671;50.084;8.794;2024-01-07T06:50:11;3.30;99.90
9847;DHT22;68671;50.084;8.794;2024-01-07T06:52:40;3.20;99.90
9847;DHT22;68671;50.084;8.794;2024-01-07T06:55:07;3.20;99.90
9847;DHT22;68671;50.084;8.794;2024-01-07T06:57:34;3.20;99.90
9847;DHT22;68671;50.084;8.794;2024-01-07T07:00:01;3.20;99.90
9847;DHT22;68671;50.084;8.794;2024-01-07T07:02:29;3.20;99.90
9847;DHT22;68671;50.084;8.794;2024-01-07T07:04:56;3.20;99.90
9847;DHT22;68671;50.084;8.794;2024-01-07T07:07:23;3.20;99.90
9847;DHT22;68671;50.084;8.794;2024-01-07T07:09:51;3.20;99.90
9847;DHT22;68671;50.084;8.794;2024-01-07T07:12:18;3.20;99.90
9847;DHT22;68671;50.084;8.794;2024-01-07T07:14:45;3.10;99.90
9847;DHT22;68671;50.084;8.794;2024-01-07T07:17:13;3.10;99.90
9847;DHT22;68671;50.084;8.794;2024-01-07T07:19:40;3.10;99.90
9847;DHT22;68671;50.084;8.794;2024-01-07T07:22:07;3.20;99.90
9847;DHT22;68671;50.084;8.794;2024-01-07T07:24:34;3.30;99.90
9847;DHT22;68671;50.084;8.794;2024-01-07T07:27:02;3.40;99.90
9847;DHT22;68671;50.084;8.794;2024-01-07T07:29:29;3.40;99.90
9847;DHT22;68671;50.084;8.794;2024-01-07T07:31:56;3.40;99.90
9847;DHT22;68671;50.084;8.794;2024-01-07T07:34:23;3.50;99.90
9847;DHT22;68671;50.084;8.794;2024-01-07T07:36:50;3.40;99.90
9847;DHT22;68671;50.084;8.794;2024-01-07T07:39:17;3.40;99.90
9847;DHT22;68671;50.084;8.794;2024-01-07T07:41:44;3.30;99.90
9847;DHT22;68671;50.084;8.794;2024-01-07T07:44:12;3.30;99.90
9847;DHT22;68671;50.084;8.794;2024-01-07T07:46:39;3.30;99.90
9847;DHT22;68671;50.084;8.794;2024-01-07T07:49:06;3.30;99.90
9847;DHT22;68671;50.084;8.794;2024-01-07T07:51:33;3.30;99.90
9847;DHT22;68671;50.084;8.794;2024-01-07T07:54:00;3.30;99.90
9847;DHT22;68671;50.084;8.794;2024-01-07T07:56:27;3.30;99.90
9847;DHT22;68671;50.084;8.794;2024-01-07T07:58:54;3.30;99.90
9847;DHT22;68671;50.084;8.794;2024-01-07T08:01:23;3.30;99.90
9847;DHT22;68671;50.084;8.794;2024-01-07T08:03:50;3.20;99.90
9847;DHT22;68671;50.084;8.794;2024-01-07T08:06:17;3.10;99.90
9847;DHT22;68671;50.084;8.794;2024-01-07T08:08:43;3.00;99.90
9847;DHT22;68671;50.084;8.794;2024-01-07T08:11:10;3.00;99.90
9847;DHT22;68671;50.084;8.794;2024-01-07T08:13:38;3.00;99.90
9847;DHT22;68671;50.084;8.794;2024-01-07T08:16:06;3.00;99.90
9847;DHT22;68671;50.084;8.794;2024-01-07T08:18:34;2.90;99.90
9847;DHT22;68671;50.084;8.794;2024-01-07T08:21:01;2.90;99.90
9847;DHT22;68671;50.084;8.794;2024-01-07T08:23:28;2.90;99.90
9847;DHT22;68671;50.084;8.794;2024-01-07T08:25:55;2.90;99.90
9847;DHT22;68671;50.084;8.794;2024-01-07T08:28:23;2.90;99.90
9847;DHT22;68671;50.084;8.794;2024-01-07T08:30:50;2.80;99.90
9847;DHT22;68671;50.084;8.794;2024-01-07T08:33:18;2.80;99.90
9847;DHT22;68671;50.084;8.794;2024-01-07T08:35:47;2.80;99.90
9847;DHT22;68671;50.084;8.794;2024-01-07T08:38:14;2.80;99.90
9847;DHT22;68671;50.084;8.794;2024-01-07T08:40:41;2.90;99.90
9847;DHT22;68671;50.084;8.794;2024-01-07T08:43:08;2.90;99.90
9847;DHT22;68671;50.084;8.794;2024-01-07T08:45:35;2.90;99.90
9847;DHT22;68671;50.084;8.794;2024-01-07T08:48:01;2.80;99.90
9847;DHT22;68671;50.084;8.794;2024-01-07T08:50:28;2.80;99.90
9847;DHT22;68671;50.084;8.794;2024-01-07T08:52:57;2.80;99.90
9847;DHT22;68671;50.084;8.794;2024-01-07T08:55:24;2.80;99.90
9847;DHT22;68671;50.084;8.794;2024-01-07T08:57:51;2.80;99.90
9847;DHT22;68671;50.084;8.794;2024-01-07T09:00:18;2.70;99.90
9847;DHT22;68671;50.084;8.794;2024-01-07T09:02:45;2.70;99.90
9847;DHT22;68671;50.084;8.794;2024-01-07T09:05:13;2.70;99.90
9847;DHT22;68671;50.084;8.794;2024-01-07T09:07:40;2.60;99.90
9847;DHT22;68671;50.084;8.794;2024-01-07T09:10:08;2.60;99.90
9847;DHT22;68671;50.084;8.794;2024-01-07T09:12:37;2.70;99.90
9847;DHT22;68671;50.084;8.794;2024-01-07T09:15:05;2.60;99.90
9847;DHT22;68671;50.084;8.794;2024-01-07T09:17:34;2.60;99.90
9847;DHT22;68671;50.084;8.794;2024-01-07T09:20:01;2.70;99.90
9847;DHT22;68671;50.084;8.794;2024-01-07T09:22:30;2.70;99.90
9847;DHT22;68671;50.084;8.794;2024-01-07T09:24:57;2.70;99.90
9847;DHT22;68671;50.084;8.794;2024-01-07T09:27:25;2.60;99.90
9847;DHT22;68671;50.084;8.794;2024-01-07T09:29:52;2.70;99.90
9847;DHT22;68671;50.084;8.794;2024-01-07T09:32:19;2.60;99.90
9847;DHT22;68671;50.084;8.794;2024-01-07T09:34:46;2.60;99.90
9847;DHT22;68671;50.084;8.794;2024-01-07T09:37:13;2.60;99.90
9847;DHT22;68671;50.084;8.794;2024-01-07T09:39:40;2.60;99.90
9847;DHT22;68671;50.084;8.794;2024-01-07T09:42:12;2.70;99.90
9847;DHT22;68671;50.084;8.794;2024-01-07T09:44:41;2.70;99.90
9847;DHT22;68671;50.084;8.794;2024-01-07T09:47:11;2.60;99.90
9847;DHT22;68671;50.084;8.794;2024-01-07T09:49:38;2.60;99.90
9847;DHT22;68671;50.084;8.794;2024-01-07T09:52:05;2.60;99.90
9847;DHT22;68671;50.084;8.794;2024-01-07T09:54:36;2.50;99.90
9847;DHT22;68671;50.084;8.794;2024-01-07T09:57:04;2.60;99.90
9847;DHT22;68671;50.084;8.794;2024-01-07T09:59:33;2.60;99.90
9847;DHT22;68671;50.084;8.794;2024-01-07T10:02:01;2.60;99.90
9847;DHT22;68671;50.084;8.794;2024-01-07T10:04:29;2.60;99.90
9847;DHT22;68671;50.084;8.794;2024-01-07T10:06:57;2.60;99.90
9847;DHT22;68671;50.084;8.794;2024-01-07T10:09:24;2.60;99.90
9847;DHT22;68671;50.084;8.794;2024-01-07T10:11:52;2.70;99.90
9847;DHT22;68671;50.084;8.794;2024-01-07T10:14:19;2.80;99.90
9847;DHT22;68671;50.084;8.794;2024-01-07T10:16:48;2.80;99.90
9847;DHT22;68671;50.084;8.794;2024-01-07T10:19:20;2.90;99.90
9847;DHT22;68671;50.084;8.794;2024-01-07T10:21:58;3.00;99.90
9847;DHT22;68671;50.084;8.794;2024-01-07T10:24:26;2.90;99.90
9847;DHT22;68671;50.084;8.794;2024-01-07T10:26:53;2.90;99.90
9847;DHT22;68671;50.084;8.794;2024-01-07T10:29:22;2.90;99.90
9847;DHT22;68671;50.084;8.794;2024-01-07T10:31:48;2.90;99.90
9847;DHT22;68671;50.084;8.794;2024-01-07T10:34:16;2.90;99.90
9847;DHT22;68671;50.084;8.794;2024-01-07T10:36:45;2.90;99.90
9847;DHT22;68671;50.084;8.794;2024-01-07T10:39:12;2.80;99.90
9847;DHT22;68671;50.084;8.794;2024-01-07T10:41:42;2.80;99.90
9847;DHT22;68671;50.084;8.794;2024-01-07T10:44:11;2.70;99.90
9847;DHT22;68671;50.084;8.794;2024-01-07T10:46:39;2.70;99.90
9847;DHT22;68671;50.084;8.794;2024-01-07T10:49:15;2.70;99.90
9847;DHT22;68671;50.084;8.794;2024-01-07T10:51:55;2.80;99.90
9847;DHT22;68671;50.084;8.794;2024-01-07T10:54:24;2.70;99.90
9847;DHT22;68671;50.084;8.794;2024-01-07T10:56:58;2.60;99.90
9847;DHT22;68671;50.084;8.794;2024-01-07T10:59:26;2.50;99.90
9847;DHT22;68671;50.084;8.794;2024-01-07T11:01:54;2.50;99.90
9847;DHT22;68671;50.084;8.794;2024-01-07T11:04:26;2.40;99.90
9847;DHT22;68671;50.084;8.794;2024-01-07T11:07:05;2.50;99.90
9847;DHT22;68671;50.084;8.794;2024-01-07T11:09:37;2.60;99.90
9847;DHT22;68671;50.084;8.794;2024-01-07T11:12:06;2.60;99.90
9847;DHT22;68671;50.084;8.794;2024-01-07T11:14:35;2.60;99.90
9847;DHT22;68671;50.084;8.794;2024-01-07T11:17:03;2.70;99.90
9847;DHT22;68671;50.084;8.794;2024-01-07T11:19:30;2.80;99.90
9847;DHT22;68671;50.084;8.794;2024-01-07T11:22:25;2.90;99.90
9847;DHT22;68671;50.084;8.794;2024-01-07T11:24:53;2.90;99.90
9847;DHT22;68671;50.084;8.794;2024-01-07T11:27:24;2.80;99.90
9847;DHT22;68671;50.084;8.794;2024-01-07T11:29:55;2.80;99.90
9847;DHT22;68671;50.084;8.794;2024-01-07T11:32:45;2.70;99.90
9847;DHT22;68671;50.084;8.794;2024-01-07T11:35:59;2.70;99.90
9847;DHT22;68671;50.084;8.794;2024-01-07T11:38:29;2.70;99.90
9847;DHT22;68671;50.084;8.794;2024-01-07T11:40:56;2.70;99.90
9847;DHT22;68671;50.084;8.794;2024-01-07T11:43:24;2.60;99.90
9847;DHT22;68671;50.084;8.794;2024-01-07T11:45:52;2.60;99.90
9847;DHT22;68671;50.084;8.794;2024-01-07T11:48:20;2.50;99.90
9847;DHT22;68671;50.084;8.794;2024-01-07T11:50:47;2.50;99.90
9847;DHT22;68671;50.084;8.794;2024-01-07T11:53:14;2.50;99.90
9847;DHT22;68671;50.084;8.794;2024-01-07T12:16:15;2.50;99.90
9847;DHT22;68671;50.084;8.794;2024-01-07T12:18:42;2.50;99.90
9847;DHT22;68671;50.084;8.794;2024-01-07T12:21:09;2.50;99.90
9847;DHT22;68671;50.084;8.794;2024-01-07T12:23:37;2.40;99.90
9847;DHT22;68671;50.084;8.794;2024-01-07T12:26:08;2.40;99.90
9847;DHT22;68671;50.084;8.794;2024-01-07T12:28:36;2.30;99.90
9847;DHT22;68671;50.084;8.794;2024-01-07T12:31:03;2.30;99.90
9847;DHT22;68671;50.084;8.794;2024-01-07T12:33:32;2.20;99.90
9847;DHT22;68671;50.084;8.794;2024-01-07T12:36:00;2.20;99.90
9847;DHT22;68671;50.084;8.794;2024-01-07T12:38:27;2.10;99.90
9847;DHT22;68671;50.084;8.794;2024-01-07T12:40:54;2.10;99.90
9847;DHT22;68671;50.084;8.794;2024-01-07T12:43:22;2.10;99.90
9847;DHT22;68671;50.084;8.794;2024-01-07T12:45:49;2.20;99.90
9847;DHT22;68671;50.084;8.794;2024-01-07T12:48:16;2.20;99.90
9847;DHT22;68671;50.084;8.794;2024-01-07T12:50:44;2.10;99.90
9847;DHT22;68671;50.084;8.794;2024-01-07T12:53:11;2.20;99.90
9847;DHT22;68671;50.084;8.794;2024-01-07T12:55:38;2.20;99.90
9847;DHT22;68671;50.084;8.794;2024-01-07T12:58:05;2.30;99.90
9847;DHT22;68671;50.084;8.794;2024-01-07T13:00:33;2.40;99.90
9847;DHT22;68671;50.084;8.794;2024-01-07T13:03:01;2.40;99.90
9847;DHT22;68671;50.084;8.794;2024-01-07T13:05:33;2.50;99.90
9847;DHT22;68671;50.084;8.794;2024-01-07T13:08:10;2.40;99.90
9847;DHT22;68671;50.084;8.794;2024-01-07T13:10:40;2.40;99.90
9847;DHT22;68671;50.084;8.794;2024-01-07T13:13:07;2.30;99.90
9847;DHT22;68671;50.084;8.794;2024-01-07T13:15:36;2.30;99.90
9847;DHT22;68671;50.084;8.794;2024-01-07T13:18:06;2.20;99.90
9847;DHT22;68671;50.084;8.794;2024-01-07T13:20:33;2.20;99.90
9847;DHT22;68671;50.084;8.794;2024-01-07T13:23:01;2.20;99.90
9847;DHT22;68671;50.084;8.794;2024-01-07T13:25:57;2.20;99.90
9847;DHT22;68671;50.084;8.794;2024-01-07T13:28:24;2.20;99.90
9847;DHT22;68671;50.084;8.794;2024-01-07T13:30:52;2.20;99.90
9847;DHT22;68671;50.084;8.794;2024-01-07T13:33:29;2.20;99.90
9847;DHT22;68671;50.084;8.794;2024-01-07T13:35:56;2.20;99.90
9847;DHT22;68671;50.084;8.794;2024-01-07T13:38:23;2.20;99.90
9847;DHT22;68671;50.084;8.794;2024-01-07T13:40:53;2.20;99.90
9847;DHT22;68671;50.084;8.794;2024-01-07T13:43:34;2.20;99.90
9847;DHT22;68671;50.084;8.794;2024-01-07T13:46:03;2.30;99.90
9847;DHT22;68671;50.084;8.794;2024-01-07T13:48:30;2.30;99.90
9847;DHT22;68671;50.084;8.794;2024-01-07T13:50:57;2.50;99.90
9847;DHT22;68671;50.084;8.794;2024-01-07T13:53:24;2.50;99.90
9847;DHT22;68671;50.084;8.794;2024-01-07T13:55:55;2.40;99.90
9847;DHT22;68671;50.084;8.794;2024-01-07T13:58:30;2.40;99.90
9847;DHT22;68671;50.084;8.794;2024-01-07T14:01:04;2.40;99.90
9847;DHT22;68671;50.084;8.794;2024-01-07T14:03:34;2.30;99.90
9847;DHT22;68671;50.084;8.794;2024-01-07T14:06:01;2.40;99.90
9847;DHT22;68671;50.084;8.794;2024-01-07T14:08:29;2.40;99.90
9847;DHT22;68671;50.084;8.794;2024-01-07T14:11:03;2.40;99.90
9847;DHT22;68671;50.084;8.794;2024-01-07T14:13:51;2.50;99.90
9847;DHT22;68671;50.084;8.794;2024-01-07T14:20:12;2.40;99.90
9847;DHT22;68671;50.084;8.794;2024-01-07T14:22:39;2.40;99.90
9847;DHT22;68671;50.084;8.794;2024-01-07T14:25:09;2.30;99.90
9847;DHT22;68671;50.084;8.794;2024-01-07T14:27:36;2.30;99.90
9847;DHT22;68671;50.084;8.794;2024-01-07T14:30:07;2.30;99.90
9847;DHT22;68671;50.084;8.794;2024-01-07T14:32:34;2.20;99.90
9847;DHT22;68671;50.084;8.794;2024-01-07T14:35:02;2.20;99.90
9847;DHT22;68671;50.084;8.794;2024-01-07T14:37:29;2.10;99.90
9847;DHT22;68671;50.084;8.794;2024-01-07T14:39:56;2.10;99.90
9847;DHT22;68671;50.084;8.794;2024-01-07T14:42:23;2.10;99.90
9847;DHT22;68671;50.084;8.794;2024-01-07T14:44:51;2.20;99.90
9847;DHT22;68671;50.084;8.794;2024-01-07T14:47:19;2.20;99.90
9847;DHT22;68671;50.084;8.794;2024-01-07T14:53:37;2.10;99.90
9847;DHT22;68671;50.084;8.794;2024-01-07T14:56:10;2.10;99.90
9847;DHT22;68671;50.084;8.794;2024-01-07T14:58:40;2.10;99.90
9847;DHT22;68671;50.084;8.794;2024-01-07T15:01:16;2.10;99.90
9847;DHT22;68671;50.084;8.794;2024-01-07T15:04:19;2.10;99.90
9847;DHT22;68671;50.084;8.794;2024-01-07T15:07:07;2.10;99.90
9847;DHT22;68671;50.084;8.794;2024-01-07T15:09:51;2.10;99.90
9847;DHT22;68671;50.084;8.794;2024-01-07T15:12:18;2.20;99.90
9847;DHT22;68671;50.084;8.794;2024-01-07T15:14:45;2.20;99.90
9847;DHT22;68671;50.084;8.794;2024-01-07T15:17:12;2.30;99.90
9847;DHT22;68671;50.084;8.794;2024-01-07T15:19:54;2.30;99.90
9847;DHT22;68671;50.084;8.794;2024-01-07T15:22:32;2.30;99.90
9847;DHT22;68671;50.084;8.794;2024-01-07T15:24:59;2.30;99.90
9847;DHT22;68671;50.084;8.794;2024-01-07T15:27:26;2.40;99.90
9847;DHT22;68671;50.084;8.794;2024-01-07T15:30:00;2.40;99.90
9847;DHT22;68671;50.084;8.794;2024-01-07T15:32:33;2.40;99.90
9847;DHT22;68671;50.084;8.794;2024-01-07T15:35:38;2.40;99.90
9847;DHT22;68671;50.084;8.794;2024-01-07T15:41:47;2.50;99.90
9847;DHT22;68671;50.084;8.794;2024-01-07T15:44:31;2.30;99.90
9847;DHT22;68671;50.084;8.794;2024-01-07T15:46:59;2.30;99.90
9847;DHT22;68671;50.084;8.794;2024-01-07T15:49:26;2.20;99.90
9847;DHT22;68671;50.084;8.794;2024-01-07T15:51:58;2.30;99.90
9847;DHT22;68671;50.084;8.794;2024-01-07T15:54:27;2.30;99.90
9847;DHT22;68671;50.084;8.794;2024-01-07T15:56:54;2.30;99.90
9847;DHT22;68671;50.084;8.794;2024-01-07T15:59:25;2.30;99.90
9847;DHT22;68671;50.084;8.794;2024-01-07T16:01:52;2.30;99.90
9847;DHT22;68671;50.084;8.794;2024-01-07T16:04:22;2.40;99.90
9847;DHT22;68671;50.084;8.794;2024-01-07T16:06:59;2.40;99.90
9847;DHT22;68671;50.084;8.794;2024-01-07T16:09:26;2.40;99.90
9847;DHT22;68671;50.084;8.794;2024-01-07T16:11:53;2.30;99.90
9847;DHT22;68671;50.084;8.794;2024-01-07T16:14:22;2.40;99.90
9847;DHT22;68671;50.084;8.794;2024-01-07T16:16:53;2.40;99.90
9847;DHT22;68671;50.084;8.794;2024-01-07T16:19:27;2.40;99.90
9847;DHT22;68671;50.084;8.794;2024-01-07T16:22:05;2.40;99.90
9847;DHT22;68671;50.084;8.794;2024-01-07T16:24:47;2.50;99.90
9847;DHT22;68671;50.084;8.794;2024-01-07T16:27:14;2.50;99.90
9847;DHT22;68671;50.084;8.794;2024-01-07T16:29:41;2.40;99.90
9847;DHT22;68671;50.084;8.794;2024-01-07T16:32:08;2.30;99.90
9847;DHT22;68671;50.084;8.794;2024-01-07T16:34:35;2.30;99.90
9847;DHT22;68671;50.084;8.794;2024-01-07T16:37:04;2.30;99.90
9847;DHT22;68671;50.084;8.794;2024-01-07T16:39:31;2.40;99.90
9847;DHT22;68671;50.084;8.794;2024-01-07T16:41:58;2.30;99.90
9847;DHT22;68671;50.084;8.794;2024-01-07T16:44:25;2.30;99.90